sensor_id;sensor_type;location;lat;lon;timestamp;P1;durP1;ratioP1;P2;durP2;ratioP2
11608;SDS011;5860;52.018;8.536;2023-04-01T00:01:50;5.07;;;1.73;;
11608;SDS011;5860;52.018;8.536;2023-04-01T00:04:17;4.83;;;1.40;;
11608;SDS011;5860;52.018;8.536;2023-04-01T00:06:44;3.03;;;1.40;;
11608;SDS011;5860;52.018;8.536;2023-04-01T00:09:13;3.27;;;1.37;;
11608;SDS011;5860;52.018;8.536;2023-04-01T00:11:41;5.47;;;1.40;;
11608;SDS011;5860;52.018;8.536;2023-04-01T00:14:07;1.77;;;0.90;;
11608;SDS011;5860;52.018;8.536;2023-04-01T00:16:35;3.87;;;1.00;;
11608;SDS011;5860;52.018;8.536;2023-04-01T00:19:02;3.80;;;1.30;;
11608;SDS011;5860;52.018;8.536;2023-04-01T00:21:29;4.23;;;1.17;;
11608;SDS011;5860;52.018;8.536;2023-04-01T00:23:56;4.20;;;1.07;;
11608;SDS011;5860;52.018;8.536;2023-04-01T00:26:24;3.23;;;1.00;;
11608;SDS011;5860;52.018;8.536;2023-04-01T00:28:51;7.20;;;1.37;;
11608;SDS011;5860;52.018;8.536;2023-04-01T00:31:19;5.63;;;1.20;;
11608;SDS011;5860;52.018;8.536;2023-04-01T00:33:47;2.20;;;1.00;;
11608;SDS011;5860;52.018;8.536;2023-04-01T00:36:18;3.47;;;1.10;;
11608;SDS011;5860;52.018;8.536;2023-04-01T00:38:48;2.63;;;0.90;;
11608;SDS011;5860;52.018;8.536;2023-04-01T00:41:16;3.47;;;1.10;;
11608;SDS011;5860;52.018;8.536;2023-04-01T00:43:45;1.13;;;0.80;;
11608;SDS011;5860;52.018;8.536;2023-04-01T00:46:14;1.07;;;0.80;;
11608;SDS011;5860;52.018;8.536;2023-04-01T00:48:42;2.20;;;0.90;;
11608;SDS011;5860;52.018;8.536;2023-04-01T00:51:26;2.87;;;0.90;;
11608;SDS011;5860;52.018;8.536;2023-04-01T00:53:55;2.37;;;1.00;;
11608;SDS011;5860;52.018;8.536;2023-04-01T00:56:25;2.40;;;0.90;;
11608;SDS011;5860;52.018;8.536;2023-04-01T00:59:00;3.17;;;0.80;;
11608;SDS011;5860;52.018;8.536;2023-04-01T01:01:30;1.60;;;0.80;;
11608;SDS011;5860;52.018;8.536;2023-04-01T01:03:58;3.97;;;1.00;;
11608;SDS011;5860;52.018;8.536;2023-04-01T01:06:38;2.70;;;1.07;;
11608;SDS011;5860;52.018;8.536;2023-04-01T01:11:58;2.50;;;0.83;;
11608;SDS011;5860;52.018;8.536;2023-04-01T01:35:14;3.33;;;0.90;;
11608;SDS011;5860;52.018;8.536;2023-04-01T01:38:08;2.30;;;0.90;;
11608;SDS011;5860;52.018;8.536;2023-04-01T01:40:41;1.47;;;0.50;;
11608;SDS011;5860;52.018;8.536;2023-04-01T01:43:12;3.53;;;0.50;;
11608;SDS011;5860;52.018;8.536;2023-04-01T01:45:52;2.43;;;0.50;;
11608;SDS011;5860;52.018;8.536;2023-04-01T01:48:22;2.17;;;0.60;;
11608;SDS011;5860;52.018;8.536;2023-04-01T01:50:50;1.60;;;0.60;;
11608;SDS011;5860;52.018;8.536;2023-04-01T01:53:18;2.50;;;0.40;;
11608;SDS011;5860;52.018;8.536;2023-04-01T01:55:46;2.30;;;0.50;;
11608;SDS011;5860;52.018;8.536;2023-04-01T01:58:30;1.43;;;0.40;;
11608;SDS011;5860;52.018;8.536;2023-04-01T02:01:07;1.63;;;0.57;;
11608;SDS011;5860;52.018;8.536;2023-04-01T02:03:38;3.20;;;0.60;;
11608;SDS011;5860;52.018;8.536;2023-04-01T02:06:07;1.07;;;0.47;;
11608;SDS011;5860;52.018;8.536;2023-04-01T02:08:39;3.63;;;0.70;;
11608;SDS011;5860;52.018;8.536;2023-04-01T02:11:12;1.77;;;0.60;;
11608;SDS011;5860;52.018;8.536;2023-04-01T02:13:51;1.57;;;0.60;;
11608;SDS011;5860;52.018;8.536;2023-04-01T02:16:32;1.93;;;0.50;;
11608;SDS011;5860;52.018;8.536;2023-04-01T02:19:10;1.20;;;0.57;;
11608;SDS011;5860;52.018;8.536;2023-04-01T02:21:40;2.73;;;0.47;;
11608;SDS011;5860;52.018;8.536;2023-04-01T02:24:10;1.17;;;0.40;;
11608;SDS011;5860;52.018;8.536;2023-04-01T02:26:40;3.20;;;0.53;;
11608;SDS011;5860;52.018;8.536;2023-04-01T02:29:07;1.27;;;0.57;;
11608;SDS011;5860;52.018;8.536;2023-04-01T02:31:37;2.33;;;0.70;;
11608;SDS011;5860;52.018;8.536;2023-04-01T02:34:05;0.73;;;0.40;;
11608;SDS011;5860;52.018;8.536;2023-04-01T02:36:32;4.93;;;0.67;;
11608;SDS011;5860;52.018;8.536;2023-04-01T02:39:02;3.73;;;0.60;;
11608;SDS011;5860;52.018;8.536;2023-04-01T02:41:30;2.23;;;0.53;;
11608;SDS011;5860;52.018;8.536;2023-04-01T02:43:57;1.83;;;0.50;;
11608;SDS011;5860;52.018;8.536;2023-04-01T02:46:25;1.27;;;0.60;;
11608;SDS011;5860;52.018;8.536;2023-04-01T02:48:52;2.77;;;0.67;;
11608;SDS011;5860;52.018;8.536;2023-04-01T02:51:20;2.13;;;0.67;;
11608;SDS011;5860;52.018;8.536;2023-04-01T02:53:46;2.73;;;0.50;;
11608;SDS011;5860;52.018;8.536;2023-04-01T02:56:14;2.97;;;0.50;;
11608;SDS011;5860;52.018;8.536;2023-04-01T02:58:41;0.60;;;0.40;;
11608;SDS011;5860;52.018;8.536;2023-04-01T03:01:08;1.10;;;0.30;;
11608;SDS011;5860;52.018;8.536;2023-04-01T03:03:35;2.13;;;0.40;;
11608;SDS011;5860;52.018;8.536;2023-04-01T03:06:06;1.43;;;0.43;;
11608;SDS011;5860;52.018;8.536;2023-04-01T03:08:34;3.33;;;0.63;;
11608;SDS011;5860;52.018;8.536;2023-04-01T03:11:01;2.30;;;0.60;;
11608;SDS011;5860;52.018;8.536;2023-04-01T03:13:29;2.57;;;0.50;;
11608;SDS011;5860;52.018;8.536;2023-04-01T03:15:56;1.30;;;0.87;;
11608;SDS011;5860;52.018;8.536;2023-04-01T03:18:23;1.77;;;0.50;;
11608;SDS011;5860;52.018;8.536;2023-04-01T03:20:50;1.17;;;0.37;;
11608;SDS011;5860;52.018;8.536;2023-04-01T03:23:16;2.53;;;0.57;;
11608;SDS011;5860;52.018;8.536;2023-04-01T03:25:45;1.40;;;0.40;;
11608;SDS011;5860;52.018;8.536;2023-04-01T03:28:13;1.33;;;0.63;;
11608;SDS011;5860;52.018;8.536;2023-04-01T03:30:40;0.67;;;0.40;;
11608;SDS011;5860;52.018;8.536;2023-04-01T03:33:07;0.73;;;0.30;;
11608;SDS011;5860;52.018;8.536;2023-04-01T03:35:34;0.80;;;0.40;;
11608;SDS011;5860;52.018;8.536;2023-04-01T03:38:02;1.50;;;0.40;;
11608;SDS011;5860;52.018;8.536;2023-04-01T03:40:29;0.80;;;0.40;;
11608;SDS011;5860;52.018;8.536;2023-04-01T03:42:56;1.17;;;0.40;;
11608;SDS011;5860;52.018;8.536;2023-04-01T03:45:23;0.77;;;0.53;;
11608;SDS011;5860;52.018;8.536;2023-04-01T03:47:50;1.17;;;0.50;;
11608;SDS011;5860;52.018;8.536;2023-04-01T03:50:17;1.50;;;0.50;;
11608;SDS011;5860;52.018;8.536;2023-04-01T03:52:44;0.80;;;0.27;;
11608;SDS011;5860;52.018;8.536;2023-04-01T03:55:11;0.87;;;0.30;;
11608;SDS011;5860;52.018;8.536;2023-04-01T03:57:38;0.90;;;0.40;;
11608;SDS011;5860;52.018;8.536;2023-04-01T04:00:05;0.70;;;0.40;;
11608;SDS011;5860;52.018;8.536;2023-04-01T04:02:34;0.93;;;0.43;;
11608;SDS011;5860;52.018;8.536;2023-04-01T04:05:02;2.33;;;0.57;;
11608;SDS011;5860;52.018;8.536;2023-04-01T04:07:29;1.67;;;0.50;;
11608;SDS011;5860;52.018;8.536;2023-04-01T04:09:56;0.67;;;0.50;;
11608;SDS011;5860;52.018;8.536;2023-04-01T04:12:23;0.87;;;0.30;;
11608;SDS011;5860;52.018;8.536;2023-04-01T04:14:50;1.23;;;0.40;;
11608;SDS011;5860;52.018;8.536;2023-04-01T04:17:17;3.23;;;0.67;;
11608;SDS011;5860;52.018;8.536;2023-04-01T04:19:44;3.23;;;0.50;;
11608;SDS011;5860;52.018;8.536;2023-04-01T04:22:11;1.03;;;0.40;;
11608;SDS011;5860;52.018;8.536;2023-04-01T04:24:39;1.37;;;0.50;;
11608;SDS011;5860;52.018;8.536;2023-04-01T04:27:06;1.93;;;0.50;;
11608;SDS011;5860;52.018;8.536;2023-04-01T04:29:33;1.03;;;0.40;;
11608;SDS011;5860;52.018;8.536;2023-04-01T04:32:00;0.80;;;0.50;;
11608;SDS011;5860;52.018;8.536;2023-04-01T04:34:27;1.67;;;0.40;;
11608;SDS011;5860;52.018;8.536;2023-04-01T04:36:54;1.77;;;0.40;;
11608;SDS011;5860;52.018;8.536;2023-04-01T04:39:21;1.43;;;0.43;;
11608;SDS011;5860;52.018;8.536;2023-04-01T04:41:48;0.50;;;0.40;;
11608;SDS011;5860;52.018;8.536;2023-04-01T04:44:15;0.43;;;0.40;;
11608;SDS011;5860;52.018;8.536;2023-04-01T04:46:44;1.07;;;0.50;;
11608;SDS011;5860;52.018;8.536;2023-04-01T04:49:11;2.87;;;0.40;;
11608;SDS011;5860;52.018;8.536;2023-04-01T04:51:38;1.17;;;0.30;;
11608;SDS011;5860;52.018;8.536;2023-04-01T04:54:06;1.07;;;0.40;;
11608;SDS011;5860;52.018;8.536;2023-04-01T04:56:33;1.77;;;0.40;;
11608;SDS011;5860;52.018;8.536;2023-04-01T04:58:59;0.70;;;0.53;;
11608;SDS011;5860;52.018;8.536;2023-04-01T05:01:26;3.83;;;0.80;;
11608;SDS011;5860;52.018;8.536;2023-04-01T05:03:54;2.43;;;0.50;;
11608;SDS011;5860;52.018;8.536;2023-04-01T05:06:21;0.70;;;0.37;;
11608;SDS011;5860;52.018;8.536;2023-04-01T05:08:48;1.90;;;0.50;;
11608;SDS011;5860;52.018;8.536;2023-04-01T05:11:17;0.70;;;0.30;;
11608;SDS011;5860;52.018;8.536;2023-04-01T05:13:45;0.93;;;0.50;;
11608;SDS011;5860;52.018;8.536;2023-04-01T05:16:16;0.70;;;0.40;;
11608;SDS011;5860;52.018;8.536;2023-04-01T05:18:46;1.73;;;0.50;;
11608;SDS011;5860;52.018;8.536;2023-04-01T05:21:14;1.53;;;0.53;;
11608;SDS011;5860;52.018;8.536;2023-04-01T05:23:41;1.00;;;0.50;;
11608;SDS011;5860;52.018;8.536;2023-04-01T05:26:11;1.60;;;0.57;;
11608;SDS011;5860;52.018;8.536;2023-04-01T05:28:40;2.10;;;0.60;;
11608;SDS011;5860;52.018;8.536;2023-04-01T05:31:07;1.47;;;0.53;;
11608;SDS011;5860;52.018;8.536;2023-04-01T05:33:37;0.70;;;0.50;;
11608;SDS011;5860;52.018;8.536;2023-04-01T05:36:11;1.00;;;0.73;;
11608;SDS011;5860;52.018;8.536;2023-04-01T05:38:40;0.40;;;0.40;;
11608;SDS011;5860;52.018;8.536;2023-04-01T05:41:08;0.97;;;0.40;;
11608;SDS011;5860;52.018;8.536;2023-04-01T05:43:36;1.40;;;0.40;;
11608;SDS011;5860;52.018;8.536;2023-04-01T05:46:03;2.07;;;0.40;;
11608;SDS011;5860;52.018;8.536;2023-04-01T05:48:32;0.60;;;0.40;;
11608;SDS011;5860;52.018;8.536;2023-04-01T05:51:01;1.20;;;0.50;;
11608;SDS011;5860;52.018;8.536;2023-04-01T05:53:28;2.03;;;0.40;;
11608;SDS011;5860;52.018;8.536;2023-04-01T05:55:55;0.50;;;0.30;;
11608;SDS011;5860;52.018;8.536;2023-04-01T05:58:23;1.17;;;0.40;;
11608;SDS011;5860;52.018;8.536;2023-04-01T06:00:50;0.77;;;0.57;;
11608;SDS011;5860;52.018;8.536;2023-04-01T06:03:34;0.73;;;0.63;;
11608;SDS011;5860;52.018;8.536;2023-04-01T06:06:02;2.00;;;0.50;;
11608;SDS011;5860;52.018;8.536;2023-04-01T06:08:30;1.57;;;0.30;;
11608;SDS011;5860;52.018;8.536;2023-04-01T06:16:35;0.83;;;0.30;;
11608;SDS011;5860;52.018;8.536;2023-04-01T06:19:13;1.03;;;0.30;;
11608;SDS011;5860;52.018;8.536;2023-04-01T06:27:45;2.07;;;0.37;;
11608;SDS011;5860;52.018;8.536;2023-04-01T06:30:40;1.37;;;0.50;;
11608;SDS011;5860;52.018;8.536;2023-04-01T06:39:27;2.53;;;0.50;;
11608;SDS011;5860;52.018;8.536;2023-04-01T06:44:37;0.50;;;0.40;;
11608;SDS011;5860;52.018;8.536;2023-04-01T06:47:21;1.93;;;0.30;;
11608;SDS011;5860;52.018;8.536;2023-04-01T06:55:46;1.13;;;0.50;;
11608;SDS011;5860;52.018;8.536;2023-04-01T06:58:30;0.53;;;0.40;;
11608;SDS011;5860;52.018;8.536;2023-04-01T07:01:13;1.90;;;0.50;;
11608;SDS011;5860;52.018;8.536;2023-04-01T07:03:45;1.00;;;0.40;;
11608;SDS011;5860;52.018;8.536;2023-04-01T07:06:26;0.93;;;0.60;;
11608;SDS011;5860;52.018;8.536;2023-04-01T07:09:14;2.10;;;0.60;;
11608;SDS011;5860;52.018;8.536;2023-04-01T07:11:46;1.33;;;0.63;;
11608;SDS011;5860;52.018;8.536;2023-04-01T07:14:17;1.90;;;0.60;;
11608;SDS011;5860;52.018;8.536;2023-04-01T07:16:49;0.60;;;0.60;;
11608;SDS011;5860;52.018;8.536;2023-04-01T07:19:42;2.30;;;0.73;;
11608;SDS011;5860;52.018;8.536;2023-04-01T07:25:11;0.93;;;0.80;;
11608;SDS011;5860;52.018;8.536;2023-04-01T07:27:40;0.83;;;0.70;;
11608;SDS011;5860;52.018;8.536;2023-04-01T07:32:47;0.80;;;0.70;;
11608;SDS011;5860;52.018;8.536;2023-04-01T07:46:40;3.50;;;1.27;;
11608;SDS011;5860;52.018;8.536;2023-04-01T07:52:31;1.10;;;0.93;;
11608;SDS011;5860;52.018;8.536;2023-04-01T08:01:23;1.90;;;1.20;;
11608;SDS011;5860;52.018;8.536;2023-04-01T08:09:40;1.10;;;0.97;;
11608;SDS011;5860;52.018;8.536;2023-04-01T08:23:27;1.73;;;0.90;;
11608;SDS011;5860;52.018;8.536;2023-04-01T08:31:57;1.20;;;0.80;;
11608;SDS011;5860;52.018;8.536;2023-04-01T08:34:39;2.03;;;0.70;;
11608;SDS011;5860;52.018;8.536;2023-04-01T08:37:11;1.27;;;0.70;;
11608;SDS011;5860;52.018;8.536;2023-04-01T09:20:39;0.90;;;0.70;;
11608;SDS011;5860;52.018;8.536;2023-04-01T09:34:07;0.80;;;0.80;;
11608;SDS011;5860;52.018;8.536;2023-04-01T10:15:49;1.67;;;1.00;;
11608;SDS011;5860;52.018;8.536;2023-04-01T10:30:02;0.97;;;0.60;;
11608;SDS011;5860;52.018;8.536;2023-04-01T10:55:27;2.20;;;1.03;;
11608;SDS011;5860;52.018;8.536;2023-04-01T11:06:16;2.53;;;0.80;;
11608;SDS011;5860;52.018;8.536;2023-04-01T11:11:54;0.80;;;0.80;;
11608;SDS011;5860;52.018;8.536;2023-04-01T11:31:00;1.43;;;1.33;;
11608;SDS011;5860;52.018;8.536;2023-04-01T11:33:34;1.43;;;1.33;;
11608;SDS011;5860;52.018;8.536;2023-04-01T11:36:20;1.97;;;1.50;;
11608;SDS011;5860;52.018;8.536;2023-04-01T11:42:30;4.80;;;1.50;;
11608;SDS011;5860;52.018;8.536;2023-04-01T11:45:48;1.43;;;1.30;;
11608;SDS011;5860;52.018;8.536;2023-04-01T11:48:11;1.77;;;1.40;;
11608;SDS011;5860;52.018;8.536;2023-04-01T11:51:09;1.70;;;1.20;;
11608;SDS011;5860;52.018;8.536;2023-04-01T12:04:29;2.03;;;1.13;;
11608;SDS011;5860;52.018;8.536;2023-04-01T12:13:16;2.10;;;0.90;;
11608;SDS011;5860;52.018;8.536;2023-04-01T12:18:42;3.73;;;1.60;;
11608;SDS011;5860;52.018;8.536;2023-04-01T12:45:55;1.00;;;0.90;;
11608;SDS011;5860;52.018;8.536;2023-04-01T12:48:31;1.53;;;1.20;;
11608;SDS011;5860;52.018;8.536;2023-04-01T12:57:49;1.30;;;1.10;;
11608;SDS011;5860;52.018;8.536;2023-04-01T13:11:53;1.10;;;0.90;;
11608;SDS011;5860;52.018;8.536;2023-04-01T13:14:06;1.10;;;1.00;;
11608;SDS011;5860;52.018;8.536;2023-04-01T13:19:38;1.90;;;0.70;;
11608;SDS011;5860;52.018;8.536;2023-04-01T13:25:06;0.43;;;0.43;;
11608;SDS011;5860;52.018;8.536;2023-04-01T13:28:23;2.07;;;0.70;;
11608;SDS011;5860;52.018;8.536;2023-04-01T13:33:47;0.50;;;0.50;;
11608;SDS011;5860;52.018;8.536;2023-04-01T13:36:59;0.73;;;0.47;;
11608;SDS011;5860;52.018;8.536;2023-04-01T13:39:35;0.60;;;0.60;;
11608;SDS011;5860;52.018;8.536;2023-04-01T13:42:41;1.17;;;0.60;;
11608;SDS011;5860;52.018;8.536;2023-04-01T13:45:21;0.63;;;0.63;;
11608;SDS011;5860;52.018;8.536;2023-04-01T13:48:17;1.37;;;0.50;;
11608;SDS011;5860;52.018;8.536;2023-04-01T13:56:15;0.70;;;0.50;;
11608;SDS011;5860;52.018;8.536;2023-04-01T13:58:57;1.03;;;0.70;;
11608;SDS011;5860;52.018;8.536;2023-04-01T14:07:16;0.60;;;0.60;;
11608;SDS011;5860;52.018;8.536;2023-04-01T14:22:23;1.80;;;1.70;;
11608;SDS011;5860;52.018;8.536;2023-04-01T14:40:27;1.60;;;1.43;;
11608;SDS011;5860;52.018;8.536;2023-04-01T14:46:30;2.13;;;1.80;;
11608;SDS011;5860;52.018;8.536;2023-04-01T14:51:48;2.13;;;1.50;;
11608;SDS011;5860;52.018;8.536;2023-04-01T14:54:21;1.90;;;1.63;;
11608;SDS011;5860;52.018;8.536;2023-04-01T14:59:32;1.53;;;1.43;;
11608;SDS011;5860;52.018;8.536;2023-04-01T15:02:15;2.13;;;1.40;;
11608;SDS011;5860;52.018;8.536;2023-04-01T15:05:03;1.60;;;1.50;;
11608;SDS011;5860;52.018;8.536;2023-04-01T15:13:40;2.37;;;1.77;;
11608;SDS011;5860;52.018;8.536;2023-04-01T15:16:27;1.70;;;1.47;;
11608;SDS011;5860;52.018;8.536;2023-04-01T15:19:32;2.00;;;1.80;;
11608;SDS011;5860;52.018;8.536;2023-04-01T15:28:03;1.87;;;1.67;;
11608;SDS011;5860;52.018;8.536;2023-04-01T15:34:06;2.70;;;2.40;;
11608;SDS011;5860;52.018;8.536;2023-04-01T15:36:44;2.20;;;2.00;;
11608;SDS011;5860;52.018;8.536;2023-04-01T15:39:54;3.63;;;2.30;;
11608;SDS011;5860;52.018;8.536;2023-04-01T15:48:28;1.90;;;1.70;;
11608;SDS011;5860;52.018;8.536;2023-04-01T16:13:36;4.03;;;2.10;;
11608;SDS011;5860;52.018;8.536;2023-04-01T16:33:08;1.53;;;1.30;;
11608;SDS011;5860;52.018;8.536;2023-04-01T16:41:28;1.97;;;1.40;;
11608;SDS011;5860;52.018;8.536;2023-04-01T16:46:52;3.30;;;1.30;;
11608;SDS011;5860;52.018;8.536;2023-04-01T16:50:06;1.50;;;1.27;;
11608;SDS011;5860;52.018;8.536;2023-04-01T16:52:34;3.27;;;1.60;;
11608;SDS011;5860;52.018;8.536;2023-04-01T16:55:41;1.70;;;1.10;;
11608;SDS011;5860;52.018;8.536;2023-04-01T16:58:26;1.10;;;1.00;;
11608;SDS011;5860;52.018;8.536;2023-04-01T17:01:39;2.33;;;1.50;;
11608;SDS011;5860;52.018;8.536;2023-04-01T17:05:05;2.20;;;2.00;;
11608;SDS011;5860;52.018;8.536;2023-04-01T17:23:51;3.83;;;2.43;;
11608;SDS011;5860;52.018;8.536;2023-04-01T17:26:30;2.63;;;2.40;;
11608;SDS011;5860;52.018;8.536;2023-04-01T17:29:24;2.40;;;2.20;;
11608;SDS011;5860;52.018;8.536;2023-04-01T17:32:07;2.33;;;2.13;;
11608;SDS011;5860;52.018;8.536;2023-04-01T17:42:52;1.93;;;1.70;;
11608;SDS011;5860;52.018;8.536;2023-04-01T17:45:34;2.53;;;2.00;;
11608;SDS011;5860;52.018;8.536;2023-04-01T17:56:33;3.20;;;2.90;;
11608;SDS011;5860;52.018;8.536;2023-04-01T18:02:01;3.90;;;3.60;;
11608;SDS011;5860;52.018;8.536;2023-04-01T18:10:21;3.93;;;3.60;;
11608;SDS011;5860;52.018;8.536;2023-04-01T18:29:56;3.30;;;3.00;;
11608;SDS011;5860;52.018;8.536;2023-04-01T18:32:37;3.40;;;3.07;;
11608;SDS011;5860;52.018;8.536;2023-04-01T18:40:48;3.77;;;3.20;;
11608;SDS011;5860;52.018;8.536;2023-04-01T18:43:57;3.53;;;3.20;;
11608;SDS011;5860;52.018;8.536;2023-04-01T18:49:16;3.50;;;3.20;;
11608;SDS011;5860;52.018;8.536;2023-04-01T18:51:57;2.70;;;2.50;;
11608;SDS011;5860;52.018;8.536;2023-04-01T18:54:30;3.50;;;3.20;;
11608;SDS011;5860;52.018;8.536;2023-04-01T18:57:09;3.10;;;2.80;;
11608;SDS011;5860;52.018;8.536;2023-04-01T18:59:45;3.70;;;3.40;;
11608;SDS011;5860;52.018;8.536;2023-04-01T19:05:02;2.73;;;2.53;;
11608;SDS011;5860;52.018;8.536;2023-04-01T19:10:49;2.87;;;2.60;;
11608;SDS011;5860;52.018;8.536;2023-04-01T19:35:35;3.23;;;2.70;;
11608;SDS011;5860;52.018;8.536;2023-04-01T19:38:30;3.17;;;2.87;;
11608;SDS011;5860;52.018;8.536;2023-04-01T19:41:17;2.93;;;2.67;;
11608;SDS011;5860;52.018;8.536;2023-04-01T19:46:55;3.50;;;3.20;;
11608;SDS011;5860;52.018;8.536;2023-04-01T19:55:15;2.60;;;2.40;;
11608;SDS011;5860;52.018;8.536;2023-04-01T20:00:36;3.40;;;3.03;;
11608;SDS011;5860;52.018;8.536;2023-04-01T20:03:24;3.60;;;3.10;;
11608;SDS011;5860;52.018;8.536;2023-04-01T20:19:53;4.23;;;3.20;;
11608;SDS011;5860;52.018;8.536;2023-04-01T20:24:51;4.17;;;3.77;;
11608;SDS011;5860;52.018;8.536;2023-04-01T20:27:25;3.73;;;3.37;;
11608;SDS011;5860;52.018;8.536;2023-04-01T20:41:03;3.90;;;3.60;;
11608;SDS011;5860;52.018;8.536;2023-04-01T20:46:30;4.37;;;3.97;;
11608;SDS011;5860;52.018;8.536;2023-04-01T20:49:38;4.97;;;4.47;;
11608;SDS011;5860;52.018;8.536;2023-04-01T21:09:43;5.10;;;4.60;;
11608;SDS011;5860;52.018;8.536;2023-04-01T21:21:03;4.30;;;3.90;;
11608;SDS011;5860;52.018;8.536;2023-04-01T21:29:33;3.73;;;3.43;;
11608;SDS011;5860;52.018;8.536;2023-04-01T21:32:18;4.33;;;3.60;;
11608;SDS011;5860;52.018;8.536;2023-04-01T21:37:52;4.60;;;3.77;;
11608;SDS011;5860;52.018;8.536;2023-04-01T21:43:17;3.70;;;3.40;;
11608;SDS011;5860;52.018;8.536;2023-04-01T21:46:13;3.20;;;2.90;;
11608;SDS011;5860;52.018;8.536;2023-04-01T21:57:56;3.77;;;3.47;;
11608;SDS011;5860;52.018;8.536;2023-04-01T22:00:42;3.77;;;3.33;;
11608;SDS011;5860;52.018;8.536;2023-04-01T22:08:41;3.90;;;3.17;;
11608;SDS011;5860;52.018;8.536;2023-04-01T22:11:45;5.50;;;3.20;;
11608;SDS011;5860;52.018;8.536;2023-04-01T22:14:22;3.60;;;3.30;;
11608;SDS011;5860;52.018;8.536;2023-04-01T22:16:58;4.00;;;3.60;;
11608;SDS011;5860;52.018;8.536;2023-04-01T22:19:42;3.30;;;3.00;;
11608;SDS011;5860;52.018;8.536;2023-04-01T22:22:28;3.60;;;3.23;;
11608;SDS011;5860;52.018;8.536;2023-04-01T22:25:15;4.70;;;3.20;;
11608;SDS011;5860;52.018;8.536;2023-04-01T22:28:09;3.30;;;3.00;;
11608;SDS011;5860;52.018;8.536;2023-04-01T22:30:53;3.97;;;3.57;;
11608;SDS011;5860;52.018;8.536;2023-04-01T22:33:45;3.50;;;3.10;;
11608;SDS011;5860;52.018;8.536;2023-04-01T22:50:15;3.10;;;2.47;;
11608;SDS011;5860;52.018;8.536;2023-04-01T22:52:45;2.47;;;2.27;;
11608;SDS011;5860;52.018;8.536;2023-04-01T22:55:22;2.33;;;1.80;;
11608;SDS011;5860;52.018;8.536;2023-04-01T22:57:55;2.40;;;1.90;;
11608;SDS011;5860;52.018;8.536;2023-04-01T23:00:48;2.23;;;1.77;;
11608;SDS011;5860;52.018;8.536;2023-04-01T23:05:57;3.33;;;2.10;;
11608;SDS011;5860;52.018;8.536;2023-04-01T23:11:16;2.70;;;2.50;;
11608;SDS011;5860;52.018;8.536;2023-04-01T23:13:45;5.90;;;2.50;;
11608;SDS011;5860;52.018;8.536;2023-04-01T23:16:24;2.60;;;2.40;;
11608;SDS011;5860;52.018;8.536;2023-04-01T23:19:01;2.93;;;2.60;;
11608;SDS011;5860;52.018;8.536;2023-04-01T23:21:53;3.00;;;2.70;;
11608;SDS011;5860;52.018;8.536;2023-04-01T23:26:59;3.20;;;2.60;;
11608;SDS011;5860;52.018;8.536;2023-04-01T23:29:46;4.07;;;2.60;;
11608;SDS011;5860;52.018;8.536;2023-04-01T23:32:22;5.73;;;2.63;;
11608;SDS011;5860;52.018;8.536;2023-04-01T23:34:56;2.73;;;2.47;;
11608;SDS011;5860;52.018;8.536;2023-04-01T23:37:26;4.13;;;2.70;;
11608;SDS011;5860;52.018;8.536;2023-04-01T23:39:56;3.50;;;2.70;;
11608;SDS011;5860;52.018;8.536;2023-04-01T23:42:30;3.13;;;2.83;;
11608;SDS011;5860;52.018;8.536;2023-04-01T23:45:04;4.83;;;3.23;;
11608;SDS011;5860;52.018;8.536;2023-04-01T23:47:38;3.33;;;3.03;;
11608;SDS011;5860;52.018;8.536;2023-04-01T23:50:11;3.97;;;3.37;;
11608;SDS011;5860;52.018;8.536;2023-04-01T23:52:47;4.47;;;3.00;;
11608;SDS011;5860;52.018;8.536;2023-04-01T23:55:23;3.10;;;2.90;;
11608;SDS011;5860;52.018;8.536;2023-04-01T23:58:06;4.60;;;3.10;;
